createdAt,value
2018-03-24T00:01:02.732Z,9.57
2018-03-24T00:03:31.096Z,9.23
2018-03-24T00:05:59.445Z,18.10
2018-03-24T00:08:27.928Z,10.20
2018-03-24T00:10:56.465Z,12.00
2018-03-24T00:13:24.822Z,11.87
2018-03-24T00:15:53.934Z,9.32
2018-03-24T00:18:22.335Z,29.65
2018-03-24T00:20:50.669Z,11.20
2018-03-24T00:23:19.016Z,10.30
2018-03-24T00:25:47.359Z,11.35
2018-03-24T00:28:15.695Z,9.73
2018-03-24T00:30:44.048Z,10.60
2018-03-24T00:33:12.651Z,12.87
2018-03-24T00:35:40.986Z,10.68
2018-03-24T00:38:09.352Z,11.85
2018-03-24T00:40:37.697Z,14.80
2018-03-24T00:43:06.006Z,11.77
2018-03-24T00:45:35.104Z,19.10
2018-03-24T00:48:04.241Z,13.48
2018-03-24T00:50:32.554Z,14.07
2018-03-24T00:53:00.910Z,12.52
2018-03-24T00:55:29.474Z,13.03
2018-03-24T00:57:57.876Z,13.17
2018-03-24T01:00:26.205Z,12.63
2018-03-24T01:02:54.576Z,14.00
2018-03-24T01:05:22.916Z,12.13
2018-03-24T01:07:51.269Z,11.73
2018-03-24T01:10:19.656Z,13.13
2018-03-24T01:12:47.963Z,13.85
2018-03-24T01:15:16.283Z,13.10
2018-03-24T01:17:45.075Z,14.73
2018-03-24T01:20:13.416Z,15.47
2018-03-24T01:22:42.657Z,16.87
2018-03-24T01:25:11.037Z,13.85
2018-03-24T01:27:39.409Z,17.13
2018-03-24T01:30:07.726Z,15.35
2018-03-24T01:32:36.073Z,15.07
2018-03-24T01:35:04.458Z,16.95
2018-03-24T01:37:32.801Z,17.90
2018-03-24T01:40:02.122Z,16.48
2018-03-24T01:42:30.473Z,17.02
2018-03-24T01:44:58.823Z,15.60
2018-03-24T01:47:27.191Z,18.12
2018-03-24T01:49:55.521Z,16.25
2018-03-24T01:52:24.609Z,20.13
2018-03-24T01:54:52.987Z,17.30
2018-03-24T01:57:21.348Z,21.48
2018-03-24T01:59:49.697Z,20.27
2018-03-24T02:02:18.308Z,17.25
2018-03-24T02:04:46.660Z,25.65
2018-03-24T02:07:15.006Z,18.15
2018-03-24T02:09:43.385Z,19.25
2018-03-24T02:12:11.717Z,18.43
2018-03-24T02:14:40.081Z,18.42
2018-03-24T02:17:08.514Z,19.77
2018-03-24T02:19:36.864Z,16.42
2018-03-24T02:22:05.376Z,20.20
2018-03-24T02:27:37.710Z,15.45
2018-03-24T02:30:06.190Z,15.53
2018-03-24T02:32:34.532Z,17.10
2018-03-24T02:35:03.663Z,19.27
2018-03-24T02:37:32.092Z,19.58
2018-03-24T02:40:01.192Z,17.92
2018-03-24T02:42:30.331Z,20.20
2018-03-24T02:44:59.325Z,21.90
2018-03-24T02:47:27.741Z,19.85
2018-03-24T02:49:56.108Z,19.65
2018-03-24T02:52:25.283Z,17.57
2018-03-24T02:54:53.688Z,18.95
2018-03-24T02:57:22.818Z,20.58
2018-03-24T02:59:51.185Z,23.97
2018-03-24T03:02:19.513Z,19.33
2018-03-24T03:04:47.859Z,18.57
2018-03-24T03:07:17.189Z,22.80
2018-03-24T03:09:45.599Z,18.98
2018-03-24T03:12:13.945Z,21.87
2018-03-24T03:14:42.331Z,19.70
2018-03-24T03:17:10.690Z,18.83
2018-03-24T03:19:39.786Z,21.58
2018-03-24T03:22:08.920Z,18.23
2018-03-24T03:24:37.260Z,21.65
2018-03-24T03:27:06.376Z,24.02
2018-03-24T03:29:35.266Z,26.60
2018-03-24T03:32:09.154Z,20.77
2018-03-24T03:34:38.302Z,24.80
2018-03-24T03:37:06.646Z,21.33
2018-03-24T03:39:35.076Z,20.90
2018-03-24T03:42:03.429Z,19.67
2018-03-24T03:44:31.799Z,20.75
2018-03-24T03:47:00.164Z,22.05
2018-03-24T03:49:28.919Z,20.77
2018-03-24T03:51:57.253Z,22.05
2018-03-24T03:54:25.586Z,25.10
2018-03-24T03:56:54.026Z,29.58
2018-03-24T03:59:22.368Z,22.70
2018-03-24T04:01:50.720Z,24.08
2018-03-24T04:04:19.850Z,25.25
2018-03-24T04:06:48.304Z,24.17
2018-03-24T04:09:17.438Z,22.48
2018-03-24T04:11:46.404Z,26.27
2018-03-24T04:14:14.718Z,23.85
2018-03-24T04:16:43.094Z,25.45
2018-03-24T04:19:11.461Z,23.67
2018-03-24T04:21:39.817Z,29.20
2018-03-24T04:24:08.370Z,32.40
2018-03-24T04:26:36.748Z,28.40
2018-03-24T04:29:05.224Z,28.90
2018-03-24T04:31:33.546Z,29.35
2018-03-24T04:34:02.535Z,26.17
2018-03-24T04:36:30.893Z,32.20
2018-03-24T04:38:59.332Z,30.10
2018-03-24T04:41:27.710Z,30.40
2018-03-24T04:43:56.037Z,27.35
2018-03-24T04:46:24.409Z,28.67
2018-03-24T04:48:52.774Z,27.80
2018-03-24T04:51:21.127Z,29.95
2018-03-24T04:53:49.445Z,29.90
2018-03-24T04:56:18.256Z,26.67
2018-03-24T04:58:46.599Z,32.03
2018-03-24T05:01:14.981Z,27.80
2018-03-24T05:03:43.331Z,29.02
2018-03-24T05:06:11.676Z,30.80
2018-03-24T05:08:40.003Z,25.12
2018-03-24T05:11:08.384Z,27.80
2018-03-24T05:13:36.735Z,28.90
2018-03-24T05:16:05.077Z,33.77
2018-03-24T05:18:33.645Z,32.95
2018-03-24T05:21:02.737Z,31.00
2018-03-24T05:23:31.076Z,32.90
2018-03-24T05:25:59.576Z,28.70
2018-03-24T05:28:27.992Z,30.25
2018-03-24T05:30:57.089Z,32.80
2018-03-24T05:33:26.183Z,29.08
2018-03-24T05:35:55.287Z,33.83
2018-03-24T05:38:23.618Z,36.72
2018-03-24T05:40:52.376Z,36.90
2018-03-24T05:43:20.697Z,32.90
2018-03-24T05:45:49.101Z,31.37
2018-03-24T05:48:17.442Z,30.98
2018-03-24T05:50:45.793Z,38.38
2018-03-24T05:53:14.131Z,44.65
2018-03-24T05:55:42.491Z,36.38
2018-03-24T05:58:10.851Z,34.45
2018-03-24T06:00:39.159Z,33.83
2018-03-24T06:03:08.093Z,36.17
2018-03-24T06:05:36.410Z,28.92
2018-03-24T06:08:04.773Z,31.05
2018-03-24T06:10:33.172Z,28.97
2018-03-24T06:13:01.503Z,36.08
2018-03-24T06:15:29.849Z,36.78
2018-03-24T06:17:58.201Z,36.20
2018-03-24T06:20:26.556Z,34.75
2018-03-24T06:22:54.904Z,36.53
2018-03-24T06:25:23.383Z,34.95
2018-03-24T06:27:51.729Z,36.55
2018-03-24T06:30:23.008Z,30.45
2018-03-24T06:32:52.137Z,32.97
2018-03-24T06:35:20.542Z,31.62
2018-03-24T06:37:48.868Z,37.13
2018-03-24T06:40:18.011Z,31.77
2018-03-24T06:42:46.373Z,31.20
2018-03-24T06:45:15.645Z,30.08
2018-03-24T06:47:44.861Z,36.10
2018-03-24T06:50:13.214Z,37.03
2018-03-24T06:52:42.314Z,35.27
2018-03-24T06:55:10.682Z,29.07
2018-03-24T06:57:39.024Z,28.97
2018-03-24T07:00:08.160Z,34.70
2018-03-24T07:02:36.535Z,36.27
2018-03-24T07:05:04.879Z,32.33
2018-03-24T07:07:33.315Z,35.35
2018-03-24T07:10:01.990Z,30.95
2018-03-24T07:12:30.320Z,33.17
2018-03-24T07:14:58.660Z,37.53
2018-03-24T07:17:27.757Z,33.27
2018-03-24T07:19:56.914Z,32.37
2018-03-24T07:22:25.333Z,40.83
2018-03-24T07:24:54.503Z,32.77
2018-03-24T07:27:22.844Z,31.37
2018-03-24T07:29:51.152Z,33.80
2018-03-24T07:32:19.983Z,44.20
2018-03-24T07:34:48.344Z,33.57
2018-03-24T07:37:17.976Z,36.17
2018-03-24T07:39:46.416Z,31.58
2018-03-24T07:42:14.792Z,34.65
2018-03-24T07:44:43.159Z,35.50
2018-03-24T07:47:11.530Z,38.10
2018-03-24T07:49:39.861Z,47.63
2018-03-24T07:52:08.981Z,32.60
2018-03-24T07:54:37.738Z,35.33
2018-03-24T07:57:06.108Z,37.43
2018-03-24T07:59:35.230Z,35.63
2018-03-24T08:02:03.694Z,35.85
2018-03-24T08:04:32.782Z,30.67
2018-03-24T08:07:01.122Z,34.83
2018-03-24T08:09:29.500Z,34.83
2018-03-24T08:11:57.839Z,36.63
2018-03-24T08:14:27.178Z,35.67
2018-03-24T08:16:55.719Z,36.90
2018-03-24T08:19:24.049Z,37.22
2018-03-24T08:21:52.370Z,33.43
2018-03-24T08:24:21.496Z,33.10
2018-03-24T08:26:49.895Z,36.07
2018-03-24T08:29:18.204Z,37.07
2018-03-24T08:31:46.650Z,34.57
2018-03-24T08:34:15.018Z,28.23
2018-03-24T08:36:43.379Z,34.60
2018-03-24T08:39:11.787Z,35.27
2018-03-24T08:41:40.128Z,34.40
2018-03-24T08:44:09.232Z,40.03
2018-03-24T08:46:37.626Z,36.37
2018-03-24T08:49:05.964Z,36.17
2018-03-24T08:51:34.417Z,36.83
2018-03-24T08:54:02.827Z,33.70
2018-03-24T08:56:31.201Z,32.27
2018-03-24T08:58:59.596Z,39.53
2018-03-24T09:01:28.929Z,46.20
2018-03-24T09:03:57.424Z,39.03
2018-03-24T09:06:25.847Z,36.33
2018-03-24T09:08:54.232Z,35.77
2018-03-24T09:11:22.684Z,40.70
2018-03-24T09:13:51.070Z,38.20
2018-03-24T09:16:19.470Z,43.93
2018-03-24T09:18:47.950Z,38.23
2018-03-24T09:21:16.323Z,36.60
2018-03-24T09:23:45.262Z,46.97
2018-03-24T09:26:13.683Z,42.80
2018-03-24T09:28:42.067Z,39.57
2018-03-24T09:31:10.791Z,38.77
2018-03-24T09:33:39.165Z,33.87
2018-03-24T09:36:08.296Z,38.37
2018-03-24T09:38:36.670Z,38.80
2018-03-24T09:41:05.012Z,49.40
2018-03-24T09:43:33.366Z,44.50
2018-03-24T09:46:02.179Z,43.97
2018-03-24T09:48:31.380Z,46.20
2018-03-24T09:50:59.716Z,47.20
2018-03-24T09:53:28.057Z,55.73
2018-03-24T09:55:57.139Z,44.30
2018-03-24T09:58:26.323Z,45.63
2018-03-24T10:00:54.858Z,46.60
2018-03-24T10:03:23.219Z,47.30
2018-03-24T10:05:51.591Z,46.80
2018-03-24T10:08:21.017Z,47.10
2018-03-24T10:10:49.550Z,39.63
2018-03-24T10:13:17.934Z,46.17
2018-03-24T10:15:46.400Z,47.70
2018-03-24T10:18:14.858Z,48.57
2018-03-24T10:24:27.961Z,49.00
2018-03-24T10:26:56.488Z,45.90
2018-03-24T10:29:24.885Z,47.27
2018-03-24T10:31:53.388Z,49.60
2018-03-24T10:34:21.977Z,46.87
2018-03-24T10:36:51.239Z,48.30
2018-03-24T10:39:19.753Z,47.40
2018-03-24T10:41:48.237Z,54.63
2018-03-24T10:44:17.363Z,48.67
2018-03-24T10:46:45.733Z,47.00
2018-03-24T10:49:14.412Z,43.20
2018-03-24T10:51:42.779Z,37.90
2018-03-24T10:54:11.161Z,41.37
2018-03-24T10:56:39.580Z,41.77
2018-03-24T10:59:08.026Z,41.50
2018-03-24T11:01:38.135Z,39.73
2018-03-24T11:04:06.501Z,36.97
2018-03-24T11:06:34.848Z,43.20
2018-03-24T11:09:03.197Z,36.43
2018-03-24T11:11:32.623Z,30.13
2018-03-24T11:14:01.750Z,36.60
2018-03-24T11:16:30.204Z,41.80
2018-03-24T11:18:58.600Z,31.10
2018-03-24T11:21:26.978Z,32.60
2018-03-24T11:23:55.329Z,33.23
2018-03-24T11:26:24.483Z,30.43
2018-03-24T11:28:52.845Z,31.97
2018-03-24T11:31:21.188Z,30.70
2018-03-24T11:33:49.603Z,32.00
2018-03-24T11:36:17.938Z,32.17
2018-03-24T11:38:47.048Z,27.53
2018-03-24T11:41:15.415Z,30.30
2018-03-24T11:43:43.748Z,31.23
2018-03-24T11:46:12.121Z,31.53
2018-03-24T11:48:40.496Z,28.70
2018-03-24T11:51:08.851Z,24.57
2018-03-24T11:53:47.445Z,28.17
2018-03-24T11:56:15.836Z,25.30
2018-03-24T11:58:44.192Z,23.20
2018-03-24T12:01:13.339Z,22.53
2018-03-24T12:03:41.684Z,20.30
2018-03-24T12:06:10.807Z,23.47
2018-03-24T12:08:39.180Z,21.30
2018-03-24T12:11:07.557Z,26.67
2018-03-24T12:13:35.915Z,26.13
2018-03-24T12:16:04.599Z,19.40
2018-03-24T12:18:32.968Z,21.60
2018-03-24T12:21:02.077Z,19.40
2018-03-24T12:23:30.463Z,18.10
2018-03-24T12:25:58.814Z,20.20
2018-03-24T12:28:27.125Z,27.13
2018-03-24T12:30:55.499Z,19.90
2018-03-24T12:33:23.838Z,20.27
2018-03-24T12:35:52.217Z,18.83
2018-03-24T12:38:20.792Z,21.47
2018-03-24T12:40:49.171Z,23.03
2018-03-24T12:43:17.526Z,21.20
2018-03-24T12:45:45.932Z,19.97
2018-03-24T12:48:14.278Z,19.30
2018-03-24T12:50:42.615Z,20.17
2018-03-24T12:53:11.005Z,23.80
2018-03-24T12:55:39.344Z,17.40
2018-03-24T12:58:07.697Z,20.67
2018-03-24T13:00:36.243Z,21.80
2018-03-24T13:03:04.616Z,18.93
2018-03-24T13:05:33.775Z,21.90
2018-03-24T13:08:02.187Z,20.13
2018-03-24T13:10:30.540Z,21.87
2018-03-24T13:12:58.882Z,19.97
2018-03-24T13:15:27.256Z,16.97
2018-03-24T13:17:55.631Z,19.63
2018-03-24T13:20:23.942Z,19.30
2018-03-24T13:22:52.380Z,22.30
2018-03-24T13:25:20.709Z,18.00
2018-03-24T13:27:49.038Z,17.73
2018-03-24T13:30:18.144Z,25.30
2018-03-24T13:32:47.272Z,19.50
2018-03-24T13:35:15.620Z,20.40
2018-03-24T13:37:44.024Z,20.60
2018-03-24T13:40:12.373Z,18.20
2018-03-24T13:42:40.744Z,16.80
2018-03-24T13:45:09.944Z,17.60
2018-03-24T13:47:39.054Z,20.63
2018-03-24T13:50:07.409Z,17.87
2018-03-24T13:52:36.600Z,16.40
2018-03-24T13:55:04.962Z,17.30
2018-03-24T13:57:33.326Z,18.80
2018-03-24T14:00:01.712Z,16.73
2018-03-24T14:02:30.128Z,16.03
2018-03-24T14:04:58.474Z,15.20
2018-03-24T14:07:27.132Z,17.70
2018-03-24T14:09:55.482Z,16.17
2018-03-24T14:12:24.593Z,17.90
2018-03-24T14:14:52.994Z,17.77
2018-03-24T14:17:21.351Z,19.43
2018-03-24T14:19:49.729Z,15.23
2018-03-24T14:22:18.186Z,16.50
2018-03-24T14:24:47.336Z,16.93
2018-03-24T14:27:15.697Z,15.97
2018-03-24T14:29:44.137Z,17.57
2018-03-24T14:32:12.516Z,21.93
2018-03-24T14:34:40.850Z,16.83
2018-03-24T14:37:09.306Z,17.30
2018-03-24T14:39:37.673Z,16.10
2018-03-24T14:42:06.786Z,20.40
2018-03-24T14:44:35.213Z,16.43
2018-03-24T14:47:03.568Z,19.17
2018-03-24T14:49:31.906Z,19.97
2018-03-24T14:52:00.602Z,17.30
2018-03-24T14:54:29.164Z,21.23
2018-03-24T14:56:57.460Z,19.80
2018-03-24T14:59:25.831Z,21.00
2018-03-24T15:01:54.928Z,17.70
2018-03-24T15:04:23.283Z,20.80
2018-03-24T15:06:51.693Z,20.30
2018-03-24T15:09:20.028Z,19.13
2018-03-24T15:11:48.385Z,22.47
2018-03-24T15:14:17.023Z,19.50
2018-03-24T15:16:46.167Z,19.17
2018-03-24T15:19:14.535Z,21.53
2018-03-24T15:21:42.935Z,20.13
2018-03-24T15:24:11.328Z,22.03
2018-03-24T15:26:39.676Z,19.80
2018-03-24T15:29:26.008Z,16.90
2018-03-24T15:32:11.818Z,19.80
2018-03-24T15:38:06.084Z,21.17
2018-03-24T15:40:34.517Z,22.23
2018-03-24T15:43:03.632Z,19.20
2018-03-24T15:45:31.968Z,21.27
2018-03-24T15:48:00.594Z,22.50
2018-03-24T15:50:28.954Z,17.53
2018-03-24T15:52:58.086Z,23.87
2018-03-24T15:55:26.836Z,22.63
2018-03-24T15:57:55.173Z,20.50
2018-03-24T16:00:23.511Z,18.23
2018-03-24T16:02:51.909Z,24.47
2018-03-24T16:05:20.250Z,21.37
2018-03-24T16:07:49.399Z,19.23
2018-03-24T16:10:17.998Z,17.17
2018-03-24T16:12:47.106Z,19.70
2018-03-24T16:15:15.473Z,23.10
2018-03-24T16:17:43.860Z,23.50
2018-03-24T16:20:12.214Z,16.67
2018-03-24T16:22:40.600Z,20.97
2018-03-24T16:25:08.957Z,22.00
2018-03-24T16:27:37.352Z,18.83
2018-03-24T16:30:05.671Z,19.73
2018-03-24T16:32:34.091Z,17.10
2018-03-24T16:35:02.431Z,19.07
2018-03-24T16:37:31.566Z,18.53
2018-03-24T16:39:59.943Z,29.07
2018-03-24T16:42:28.293Z,18.90
2018-03-24T16:44:56.672Z,20.33
2018-03-24T16:47:25.038Z,20.43
2018-03-24T16:49:53.402Z,19.73
2018-03-24T16:52:22.749Z,19.73
2018-03-24T16:54:51.319Z,16.70
2018-03-24T16:57:19.767Z,20.50
2018-03-24T16:59:48.254Z,21.70
2018-03-24T17:02:16.714Z,17.80
2018-03-24T17:04:45.079Z,22.57
2018-03-24T17:07:13.397Z,17.47
2018-03-24T17:09:41.882Z,19.63
2018-03-24T17:12:10.286Z,21.50
2018-03-24T17:14:38.721Z,20.90
2018-03-24T17:17:08.340Z,17.80
2018-03-24T17:19:36.725Z,21.17
2018-03-24T17:22:05.114Z,22.00
2018-03-24T17:24:33.499Z,20.67
2018-03-24T17:27:01.859Z,24.00
2018-03-24T17:29:30.232Z,16.57
2018-03-24T17:31:58.712Z,28.73
2018-03-24T17:34:27.249Z,20.27
2018-03-24T17:36:56.384Z,18.50
2018-03-24T17:39:24.984Z,17.60
2018-03-24T17:41:53.392Z,21.07
2018-03-24T17:44:21.758Z,19.03
2018-03-24T17:46:50.120Z,21.37
2018-03-24T17:49:18.455Z,18.00
2018-03-24T17:51:46.974Z,24.43
2018-03-24T17:54:15.344Z,22.70
2018-03-24T17:56:43.717Z,24.40
2018-03-24T17:59:12.208Z,36.97
2018-03-24T18:01:40.777Z,26.67
2018-03-24T18:04:09.372Z,21.47
2018-03-24T18:06:37.735Z,33.50
2018-03-24T18:09:06.132Z,19.47
2018-03-24T18:11:34.499Z,24.80
2018-03-24T18:14:03.505Z,22.83
2018-03-24T18:16:32.372Z,22.27
2018-03-24T18:19:00.729Z,24.20
2018-03-24T18:21:30.144Z,25.90
2018-03-24T18:23:58.855Z,23.50
2018-03-24T18:26:27.215Z,20.57
2018-03-24T18:28:56.261Z,21.73
2018-03-24T18:31:24.609Z,22.93
2018-03-24T18:33:52.973Z,25.60
2018-03-24T18:36:21.323Z,23.83
2018-03-24T18:38:49.740Z,24.33
2018-03-24T18:41:18.084Z,23.00
2018-03-24T18:43:47.214Z,23.40
2018-03-24T18:46:15.664Z,25.73
2018-03-24T18:48:44.802Z,16.90
2018-03-24T18:51:13.167Z,19.30
2018-03-24T18:53:41.533Z,19.80
2018-03-24T18:56:10.732Z,23.87
2018-03-24T18:58:39.830Z,21.77
2018-03-24T19:01:08.223Z,20.10
2018-03-24T19:03:36.680Z,23.20
2018-03-24T19:06:05.801Z,23.17
2018-03-24T19:08:34.577Z,27.47
2018-03-24T19:11:02.940Z,26.27
2018-03-24T19:13:32.120Z,27.77
2018-03-24T19:16:00.490Z,26.30
2018-03-24T19:18:28.852Z,25.10
2018-03-24T19:20:57.204Z,19.00
2018-03-24T19:23:25.553Z,26.87
2018-03-24T19:25:54.759Z,23.03
2018-03-24T19:28:23.111Z,25.13
2018-03-24T19:30:51.713Z,19.83
2018-03-24T19:33:20.117Z,23.67
2018-03-24T19:35:48.505Z,21.33
2018-03-24T19:38:16.962Z,21.80
2018-03-24T19:40:45.303Z,22.10
2018-03-24T19:43:13.638Z,23.63
2018-03-24T19:45:42.782Z,28.43
2018-03-24T19:48:11.110Z,18.40
2018-03-24T19:50:39.459Z,21.33
2018-03-24T19:53:07.886Z,21.27
2018-03-24T19:55:36.223Z,18.77
2018-03-24T19:58:04.649Z,21.00
2018-03-24T20:00:33.041Z,21.63
2018-03-24T20:03:01.389Z,20.03
2018-03-24T20:05:30.246Z,19.27
2018-03-24T20:07:58.630Z,19.73
2018-03-24T20:10:28.668Z,22.00
2018-03-24T20:12:57.792Z,20.97
2018-03-24T20:15:26.309Z,25.00
2018-03-24T20:17:54.740Z,22.13
2018-03-24T20:20:23.120Z,21.70
2018-03-24T20:22:51.546Z,23.07
2018-03-24T20:25:19.927Z,26.13
2018-03-24T20:27:48.328Z,22.80
2018-03-24T20:30:17.764Z,21.30
2018-03-24T20:32:46.122Z,22.50
2018-03-24T20:35:15.251Z,23.60
2018-03-24T20:37:44.009Z,19.60
2018-03-24T20:40:13.118Z,23.40
2018-03-24T20:42:41.453Z,21.70
2018-03-24T20:45:09.863Z,23.40
2018-03-24T20:47:38.250Z,22.93
2018-03-24T20:50:06.787Z,19.33
2018-03-24T20:52:35.163Z,29.47
2018-03-24T20:55:03.502Z,22.60
2018-03-24T20:57:31.881Z,25.03
2018-03-24T21:00:00.325Z,27.40
2018-03-24T21:02:28.689Z,26.10
2018-03-24T21:04:57.485Z,23.83
2018-03-24T21:07:25.881Z,27.93
2018-03-24T21:09:55.111Z,24.53
2018-03-24T21:12:23.455Z,31.60
2018-03-24T21:14:52.613Z,33.00
2018-03-24T21:17:20.992Z,26.47
2018-03-24T21:19:49.369Z,26.40
2018-03-24T21:22:18.129Z,25.80
2018-03-24T21:24:46.643Z,27.50
2018-03-24T21:27:15.015Z,23.47
2018-03-24T21:29:43.399Z,24.33
2018-03-24T21:32:11.774Z,26.43
2018-03-24T21:34:40.153Z,23.37
2018-03-24T21:37:08.625Z,26.97
2018-03-24T21:39:37.010Z,25.87
2018-03-24T21:42:05.436Z,27.07
2018-03-24T21:44:34.833Z,29.20
2018-03-24T21:47:03.194Z,26.30
2018-03-24T21:49:33.046Z,31.57
2018-03-24T21:52:02.356Z,35.27
2018-03-24T21:54:31.488Z,25.00
2018-03-24T21:56:59.866Z,26.10
2018-03-24T21:59:28.253Z,27.23
2018-03-24T22:01:56.605Z,49.83
2018-03-24T22:04:24.946Z,47.70
2018-03-24T22:06:53.688Z,33.83
2018-03-24T22:09:22.033Z,32.67
2018-03-24T22:11:51.246Z,29.30
2018-03-24T22:14:19.645Z,28.30
2018-03-24T22:16:48.072Z,24.80
2018-03-24T22:19:16.422Z,27.47
2018-03-24T22:21:44.855Z,25.13
2018-03-24T22:24:13.247Z,26.40
2018-03-24T22:26:41.692Z,27.60
2018-03-24T22:29:10.361Z,28.63
2018-03-24T22:31:38.727Z,28.93
2018-03-24T22:34:07.964Z,29.77
2018-03-24T22:36:37.113Z,29.50
2018-03-24T22:39:05.454Z,31.17
2018-03-24T22:41:34.558Z,29.63
2018-03-24T22:44:03.680Z,27.67
2018-03-24T22:46:32.008Z,30.30
2018-03-24T22:49:00.360Z,28.87
2018-03-24T22:51:28.849Z,31.70
2018-03-24T22:53:57.205Z,30.03
2018-03-24T22:56:25.554Z,30.37
2018-03-24T22:58:53.930Z,27.53
2018-03-24T23:01:23.163Z,28.67
2018-03-24T23:03:51.529Z,36.17
2018-03-24T23:06:19.908Z,32.73
2018-03-24T23:08:48.281Z,35.93
2018-03-24T23:11:16.643Z,37.53
2018-03-24T23:13:46.064Z,35.87
2018-03-24T23:16:14.417Z,33.57
2018-03-24T23:18:42.781Z,32.23
2018-03-24T23:21:11.160Z,41.93
2018-03-24T23:23:39.528Z,34.77
2018-03-24T23:26:07.841Z,34.40
2018-03-24T23:28:36.457Z,36.33
2018-03-24T23:31:04.850Z,36.30
2018-03-24T23:33:33.195Z,33.60
2018-03-24T23:36:01.766Z,44.03
2018-03-24T23:38:30.848Z,42.60
2018-03-24T23:40:59.957Z,38.30
2018-03-24T23:43:29.088Z,27.80
2018-03-24T23:45:57.499Z,34.67
2018-03-24T23:48:25.890Z,32.77
2018-03-24T23:50:54.247Z,36.73
2018-03-24T23:53:22.575Z,33.07
2018-03-24T23:55:51.679Z,36.23
2018-03-24T23:58:20.145Z,34.60
